Time;durP1;ratioP1;P1;durP2;ratioP2;P2;SDS_P1;SDS_P2;PMS_P1;PMS_P2;Temp;Humidity;BMP_temperature;BMP_pressure;BME280_temperature;BME280_humidity;BME280_pressure;Samples;Min_cycle;Max_cycle;Signal;HPM_P1;HPM_P2
2024/01/24 00:01:07;;;;;;;12.30;4.50;;;;;;;4.38;97.48;100770.98;183431;1232;45988;-84
2024/01/24 00:05:23;;;;;;;17.00;5.40;;;;;;;4.43;97.45;100764.41;183349;1232;45985;-87
2024/01/24 00:09:25;;;;;;;11.30;6.50;;;;;;;4.46;97.52;100747.04;183399;1235;45988;-86
2024/01/24 00:13:27;;;;;;;13.50;6.50;;;;;;;4.52;97.47;100742.05;184028;1233;45835;-87
2024/01/24 00:17:29;;;;;;;13.20;5.60;;;;;;;4.58;97.08;100718.71;182888;1233;57915;-84
2024/01/24 00:21:31;;;;;;;18.80;5.50;;;;;;;4.61;96.92;100695.38;184228;1232;45892;-85
2024/01/24 00:25:33;;;;;;;14.40;7.20;;;;;;;4.60;96.71;100684.56;183114;1237;46189;-83
2024/01/24 00:29:35;;;;;;;12.30;7.20;;;;;;;4.63;96.70;100672.42;184160;1232;46048;-87
2024/01/24 00:33:36;;;;;;;9.40;4.70;;;;;;;4.70;96.82;100663.80;183731;1232;46177;-85
2024/01/24 00:37:38;;;;;;;15.10;6.80;;;;;;;4.77;96.87;100656.12;183528;1234;58067;-86
2024/01/24 00:41:41;;;;;;;15.50;6.80;;;;;;;4.83;96.84;100640.35;182877;1234;45973;-86
2024/01/24 00:45:43;;;;;;;12.70;6.50;;;;;;;4.87;96.62;100623.43;183965;1232;44118;-87
2024/01/24 00:49:45;;;;;;;14.40;5.40;;;;;;;4.89;96.90;100616.46;184857;1232;45939;-84
2024/01/24 00:53:53;;;;;;;14.00;5.70;;;;;;;4.96;96.56;100594.63;183233;1236;46060;-87
2024/01/24 00:57:54;;;;;;;13.10;5.30;;;;;;;5.01;96.47;100580.33;183509;1232;59446;-86
2024/01/24 01:01:56;;;;;;;7.50;5.30;;;;;;;5.02;96.49;100561.12;183173;1232;45985;-87
2024/01/24 01:05:58;;;;;;;11.10;5.30;;;;;;;5.04;96.74;100553.09;183683;1232;44019;-88
2024/01/24 01:10:00;;;;;;;9.90;5.70;;;;;;;5.08;96.46;100538.81;183153;1232;46008;-86
2024/01/24 01:14:02;;;;;;;9.30;4.00;;;;;;;5.08;96.81;100523.36;183468;1232;45963;-85
2024/01/24 01:18:04;;;;;;;12.40;5.30;;;;;;;5.10;97.18;100500.23;183324;1232;59188;-86
2024/01/24 01:22:06;;;;;;;10.10;6.30;;;;;;;5.10;97.66;100482.98;183226;1232;46011;-87
2024/01/24 01:26:08;;;;;;;14.00;6.10;;;;;;;5.14;97.81;100472.23;183021;1232;46100;-87
2024/01/24 01:30:10;;;;;;;17.20;5.50;;;;;;;5.17;97.72;100459.95;182986;1232;46033;-87
2024/01/24 01:34:12;;;;;;;18.00;5.30;;;;;;;5.21;98.11;100450.04;182789;1237;45969;-84
2024/01/24 01:38:14;;;;;;;9.60;6.00;;;;;;;5.26;97.88;100443.23;183111;1232;57970;-87
2024/01/24 01:42:16;;;;;;;11.60;5.10;;;;;;;5.24;98.35;100430.70;183766;1237;46174;-86
2024/01/24 01:46:19;;;;;;;9.30;5.80;;;;;;;5.28;98.32;100416.95;183715;1232;45940;-85
2024/01/24 01:50:20;;;;;;;8.00;5.20;;;;;;;5.27;98.57;100402.39;182705;1232;46063;-86
2024/01/24 01:54:23;;;;;;;15.10;5.10;;;;;;;5.25;98.85;100385.59;183135;1232;45863;-85
2024/01/24 01:58:25;;;;;;;13.20;5.30;;;;;;;5.29;99.01;100367.31;183076;1237;59384;-86
2024/01/24 02:02:27;;;;;;;14.90;4.60;;;;;;;5.30;99.18;100352.09;183151;1232;46051;-87
2024/01/24 02:06:28;;;;;;;15.00;6.60;;;;;;;5.35;99.36;100342.34;183094;1235;46071;-87
2024/01/24 02:10:30;;;;;;;11.40;5.60;;;;;;;5.38;99.19;100338.11;183187;1237;46065;-87
2024/01/24 02:14:32;;;;;;;11.80;4.60;;;;;;;5.45;98.90;100332.56;183095;1232;45971;-87
2024/01/24 02:18:34;;;;;;;9.10;4.70;;;;;;;5.49;98.89;100302.46;183469;1236;60126;-88
2024/01/24 02:22:36;;;;;;;7.30;3.40;;;;;;;5.49;98.97;100281.88;183221;1232;46112;-85
2024/01/24 02:26:39;;;;;;;10.00;4.10;;;;;;;5.51;99.01;100267.84;183596;1232;46064;-85
2024/01/24 02:30:41;;;;;;;8.90;3.70;;;;;;;5.58;99.02;100252.63;184362;1232;45964;-87
2024/01/24 02:34:42;;;;;;;10.60;3.90;;;;;;;5.64;98.90;100242.29;183443;1232;45948;-87
2024/01/24 02:38:44;;;;;;;11.90;5.60;;;;;;;5.73;98.75;100227.63;183532;1236;59317;-82
2024/01/24 02:42:46;;;;;;;12.30;4.10;;;;;;;5.78;98.52;100205.64;183346;1235;46119;-84
2024/01/24 02:46:48;;;;;;;10.60;4.20;;;;;;;5.84;98.36;100203.02;183184;1232;45902;-86
2024/01/24 02:50:50;;;;;;;11.10;3.90;;;;;;;5.89;98.13;100199.89;184078;1236;46110;-87
2024/01/24 02:54:52;;;;;;;11.40;4.70;;;;;;;5.92;97.93;100169.05;182710;1232;46174;-85
2024/01/24 02:58:54;;;;;;;10.70;4.10;;;;;;;5.97;97.62;100152.58;183392;1232;57235;-85
2024/01/24 03:02:56;;;;;;;7.30;4.10;;;;;;;5.98;97.47;100137.16;183877;1232;44082;-87
2024/01/24 03:06:58;;;;;;;5.50;3.80;;;;;;;5.98;97.47;100113.63;183290;1233;46004;-87
2024/01/24 03:11:00;;;;;;;9.30;4.20;;;;;;;6.01;97.50;100104.11;182793;1233;46004;-85
2024/01/24 03:15:02;;;;;;;6.40;3.20;;;;;;;6.04;96.95;100104.77;183346;1232;45895;-84
2024/01/24 03:19:06;;;;;;;6.70;2.30;;;;;;;6.08;97.17;100104.71;183298;1232;59114;-85
2024/01/24 03:23:08;;;;;;;5.50;2.00;;;;;;;6.11;96.87;100102.70;183154;1232;46128;-87
2024/01/24 03:27:10;;;;;;;8.00;3.10;;;;;;;6.23;96.45;100103.55;182594;1232;46020;-85
2024/01/24 03:31:12;;;;;;;3.70;2.30;;;;;;;6.29;96.31;100089.91;182815;1232;46077;-88
2024/01/24 03:35:14;;;;;;;4.80;2.00;;;;;;;6.39;95.96;100078.20;183968;1232;46046;-85
2024/01/24 03:39:16;;;;;;;2.10;1.30;;;;;;;6.46;95.45;100063.83;182890;1232;58579;-87
2024/01/24 03:43:18;;;;;;;5.60;2.50;;;;;;;6.48;95.57;100053.61;183019;1236;45865;-88
2024/01/24 03:47:20;;;;;;;2.10;0.80;;;;;;;6.52;95.34;100035.04;183165;1236;46212;-85
2024/01/24 03:51:23;;;;;;;1.60;1.50;;;;;;;6.58;95.47;100028.07;184401;1232;45941;-87
2024/01/24 03:55:25;;;;;;;4.30;2.20;;;;;;;6.60;96.29;100025.84;183558;1232;45959;-85
2024/01/24 03:59:27;;;;;;;1.80;1.00;;;;;;;6.63;96.98;100013.14;184959;1232;59336;-87
2024/01/24 04:03:29;;;;;;;3.30;1.00;;;;;;;6.57;99.28;100001.38;185974;1232;45941;-87
2024/01/24 04:07:33;;;;;;;3.50;1.40;;;;;;;6.50;100.00;99991.65;186640;1232;45974;-84
2024/01/24 04:11:44;;;;;;;3.40;1.10;;;;;;;6.44;100.00;99982.38;186504;1232;44569;-87
2024/01/24 04:15:46;;;;;;;1.10;1.00;;;;;;;6.40;100.00;99960.10;186031;1233;44409;-81
2024/01/24 04:19:48;;;;;;;2.50;1.00;;;;;;;6.39;100.00;99970.37;185668;1234;59464;-88
2024/01/24 04:23:50;;;;;;;2.10;1.20;;;;;;;6.36;100.00;99955.41;184516;1233;45148;-82
2024/01/24 04:27:52;;;;;;;3.70;1.00;;;;;;;6.27;100.00;99948.31;182703;1234;45970;-82
2024/01/24 04:31:55;;;;;;;2.80;1.20;;;;;;;6.24;100.00;99950.61;182433;1237;44013;-83
2024/01/24 04:35:56;;;;;;;6.40;1.80;;;;;;;6.17;100.00;99923.28;182748;1233;45992;-82
2024/01/24 04:39:58;;;;;;;1.40;1.20;;;;;;;6.09;100.00;99913.31;182834;1237;57769;-82
2024/01/24 04:44:00;;;;;;;8.40;1.20;;;;;;;5.98;100.00;99920.47;182713;1234;46086;-82
2024/01/24 04:48:02;;;;;;;1.40;1.00;;;;;;;5.91;100.00;99927.99;182232;1234;46006;-82
2024/01/24 04:52:04;;;;;;;8.70;1.50;;;;;;;5.87;100.00;99915.77;183343;1237;44012;-82
2024/01/24 04:56:06;;;;;;;7.60;2.40;;;;;;;5.81;100.00;99883.41;183121;1237;46031;-82
2024/01/24 05:00:09;;;;;;;3.70;1.60;;;;;;;5.78;100.00;99872.58;182538;1234;58922;-82
2024/01/24 05:04:11;;;;;;;1.60;1.40;;;;;;;5.80;100.00;99864.18;182615;1235;45934;-81
2024/01/24 05:08:13;;;;;;;4.90;4.10;;;;;;;5.78;100.00;99858.85;182274;1237;46078;-81
2024/01/24 05:12:15;;;;;;;2.40;2.00;;;;;;;5.78;100.00;99858.29;183447;1237;44323;-81
2024/01/24 05:16:17;;;;;;;2.80;2.10;;;;;;;5.81;100.00;99852.28;183051;1235;45938;-81
2024/01/24 05:20:19;;;;;;;2.50;0.90;;;;;;;5.85;100.00;99848.34;183079;1237;58064;-80
2024/01/24 05:24:21;;;;;;;2.30;1.30;;;;;;;5.89;100.00;99849.14;182376;1234;45949;-82
2024/01/24 05:28:22;;;;;;;3.60;2.00;;;;;;;5.87;100.00;99839.55;182301;1237;46068;-81
2024/01/24 05:32:24;;;;;;;1.40;1.10;;;;;;;5.92;100.00;99828.00;182659;1234;45981;-81
2024/01/24 05:36:26;;;;;;;1.30;0.70;;;;;;;5.94;100.00;99810.23;182331;1237;46032;-81
2024/01/24 05:40:28;;;;;;;1.80;1.20;;;;;;;5.96;100.00;99800.19;182353;1237;58031;-81
2024/01/24 05:44:29;;;;;;;2.00;1.00;;;;;;;5.97;100.00;99785.54;182996;1235;46808;-82
2024/01/24 05:48:31;;;;;;;1.80;1.70;;;;;;;6.00;100.00;99772.52;184193;1234;45990;-82
2024/01/24 05:52:33;;;;;;;2.10;0.80;;;;;;;6.04;100.00;99767.12;184263;1233;45989;-82
2024/01/24 05:56:35;;;;;;;1.50;0.60;;;;;;;6.09;100.00;99763.64;184207;1234;45936;-81
2024/01/24 06:00:37;;;;;;;4.80;3.30;;;;;;;6.13;100.00;99761.39;182898;1233;58025;-82
2024/01/24 06:04:39;;;;;;;4.10;3.20;;;;;;;6.19;100.00;99753.62;182678;1234;46120;-81
2024/01/24 06:08:43;;;;;;;3.50;2.20;;;;;;;6.27;100.00;99753.55;182626;1234;46015;-81
2024/01/24 06:12:45;;;;;;;3.80;2.10;;;;;;;6.30;100.00;99750.18;183420;1233;45992;-82
2024/01/24 06:16:47;;;;;;;4.10;1.90;;;;;;;6.40;100.00;99745.77;182714;1233;45964;-81
2024/01/24 06:20:49;;;;;;;3.50;1.70;;;;;;;6.45;100.00;99740.27;182523;1235;59895;-81
2024/01/24 06:24:50;;;;;;;0.60;0.50;;;;;;;6.57;100.00;99736.55;182354;1234;46032;-81
2024/01/24 06:28:52;;;;;;;1.90;1.10;;;;;;;6.71;100.00;99733.27;182294;1235;46031;-82
2024/01/24 06:32:54;;;;;;;1.40;0.80;;;;;;;6.83;100.00;99732.23;182540;1237;45978;-82
2024/01/24 06:36:56;;;;;;;0.90;0.80;;;;;;;6.95;100.00;99718.78;183088;1234;45968;-82
2024/01/24 06:40:58;;;;;;;0.90;0.90;;;;;;;7.05;100.00;99710.66;182949;1237;58724;-82
2024/01/24 06:45:00;;;;;;;0.60;0.60;;;;;;;7.15;100.00;99705.98;183236;1237;45938;-82
2024/01/24 06:49:01;;;;;;;2.40;0.90;;;;;;;7.29;100.00;99702.86;182518;1234;45986;-82
2024/01/24 06:53:05;;;;;;;1.50;1.00;;;;;;;7.42;100.00;99701.09;182596;1233;46051;-81
2024/01/24 06:57:07;;;;;;;2.50;1.30;;;;;;;7.53;100.00;99702.01;182383;1237;46062;-81
2024/01/24 07:01:09;;;;;;;3.10;1.50;;;;;;;7.68;100.00;99702.10;182286;1234;59450;-81
2024/01/24 07:05:11;;;;;;;1.50;1.30;;;;;;;7.80;100.00;99697.77;182468;1234;45970;-81
2024/01/24 07:09:13;;;;;;;3.20;1.20;;;;;;;8.12;100.00;99678.49;182334;1234;46023;-81
2024/01/24 07:13:15;;;;;;;1.60;0.70;;;;;;;8.42;100.00;99659.80;183295;1235;45948;-80
2024/01/24 07:17:17;;;;;;;10.20;1.70;;;;;;;8.72;100.00;99660.21;182579;1233;46030;-81
2024/01/24 07:21:19;;;;;;;1.80;1.60;;;;;;;8.79;100.00;99645.29;184022;1233;59794;-80
2024/01/24 07:25:21;;;;;;;1.60;1.50;;;;;;;8.79;100.00;99646.50;182347;1237;46097;-81
2024/01/24 07:29:23;;;;;;;4.20;1.50;;;;;;;8.79;100.00;99640.13;182839;1234;45953;-81
2024/01/24 07:33:26;;;;;;;2.00;1.00;;;;;;;8.81;100.00;99639.44;183245;1234;46053;-81
2024/01/24 07:37:28;;;;;;;3.30;1.30;;;;;;;8.75;100.00;99643.54;182735;1237;45934;-81
2024/01/24 07:41:36;;;;;;;1.20;0.70;;;;;;;8.61;100.00;99645.73;183660;1234;57981;-81
2024/01/24 07:45:38;;;;;;;1.50;0.80;;;;;;;8.53;100.00;99635.82;183022;1234;45929;-82
2024/01/24 07:49:40;;;;;;;1.10;0.60;;;;;;;8.80;100.00;99634.03;183059;1233;44997;-82
2024/01/24 07:53:43;;;;;;;0.40;0.30;;;;;;;9.49;100.00;99625.14;182600;1234;46019;-82
2024/01/24 07:57:45;;;;;;;1.00;0.50;;;;;;;10.13;100.00;99622.30;182866;1238;45964;-82
2024/01/24 08:01:48;;;;;;;0.40;0.40;;;;;;;10.52;100.00;99617.98;182774;1234;59851;-82
2024/01/24 08:05:51;;;;;;;0.30;0.20;;;;;;;10.79;100.00;99608.77;183176;1234;46081;-82
2024/01/24 08:09:53;;;;;;;0.40;0.30;;;;;;;11.01;100.00;99603.55;182663;1237;46117;-82
2024/01/24 08:13:55;;;;;;;1.40;0.30;;;;;;;11.28;100.00;99603.77;182669;1234;46081;-82
2024/01/24 08:17:57;;;;;;;2.70;0.80;;;;;;;11.45;100.00;99596.85;182756;1234;46070;-82
2024/01/24 08:21:59;;;;;;;0.80;0.20;;;;;;;11.57;100.00;99585.79;182250;1233;58040;-82
2024/01/24 08:26:01;;;;;;;1.30;0.50;;;;;;;11.69;100.00;99575.70;182727;1234;46079;-82
2024/01/24 08:30:03;;;;;;;0.20;0.20;;;;;;;11.77;100.00;99583.67;182668;1233;46128;-82
2024/01/24 08:34:05;;;;;;;1.30;0.60;;;;;;;11.85;100.00;99575.45;182616;1234;46181;-83
2024/01/24 08:38:07;;;;;;;2.60;0.50;;;;;;;11.87;100.00;99554.04;182648;1233;45954;-82
2024/01/24 08:42:09;;;;;;;0.40;0.40;;;;;;;11.97;100.00;99560.58;183370;1234;57380;-82
2024/01/24 08:46:11;;;;;;;3.60;0.40;;;;;;;12.01;100.00;99567.11;182811;1235;44508;-82
2024/01/24 08:50:13;;;;;;;0.70;0.30;;;;;;;12.03;100.00;99564.93;182901;1235;46073;-82
2024/01/24 08:54:14;;;;;;;1.00;0.70;;;;;;;12.03;100.00;99570.16;182605;1235;46090;-82
2024/01/24 08:58:17;;;;;;;0.50;0.40;;;;;;;11.98;100.00;99570.39;183142;1234;45944;-82
2024/01/24 09:02:20;;;;;;;0.50;0.40;;;;;;;12.06;100.00;99556.83;183386;1237;58023;-82
2024/01/24 09:06:22;;;;;;;1.10;0.40;;;;;;;12.09;100.00;99563.26;183037;1234;46014;-83
2024/01/24 09:10:25;;;;;;;0.80;0.30;;;;;;;12.27;100.00;99562.23;182737;1233;45970;-82
2024/01/24 09:14:26;;;;;;;1.70;0.40;;;;;;;12.45;100.00;99554.27;182292;1237;46027;-82
2024/01/24 09:18:28;;;;;;;0.30;0.30;;;;;;;12.53;100.00;99550.73;182703;1235;45848;-82
2024/01/24 09:22:31;;;;;;;0.90;0.60;;;;;;;12.72;100.00;99546.52;183239;1233;57892;-82
2024/01/24 09:26:32;;;;;;;1.20;0.30;;;;;;;12.96;99.61;99541.77;182487;1233;45945;-82
2024/01/24 09:30:34;;;;;;;0.40;0.30;;;;;;;13.03;99.99;99542.08;182769;1233;46210;-82
2024/01/24 09:34:36;;;;;;;0.40;0.30;;;;;;;12.90;100.00;99543.56;182680;1234;45886;-82
2024/01/24 09:38:42;;;;;;;0.80;0.60;;;;;;;12.59;100.00;99560.15;182736;1234;45967;-82
2024/01/24 09:42:44;;;;;;;1.80;0.30;;;;;;;12.29;100.00;99558.38;182590;1233;58792;-82
2024/01/24 09:46:49;;;;;;;0.50;0.50;;;;;;;12.11;100.00;99554.36;182748;1234;46073;-82
2024/01/24 09:50:51;;;;;;;1.20;0.40;;;;;;;12.17;100.00;99541.58;182948;1234;46112;-82
2024/01/24 09:54:57;;;;;;;1.90;0.70;;;;;;;12.25;100.00;99560.02;182871;1234;180333;-82
2024/01/24 09:58:59;;;;;;;0.90;0.60;;;;;;;12.22;100.00;99551.02;182814;1233;45990;-81
2024/01/24 10:03:02;;;;;;;1.10;0.40;;;;;;;12.25;100.00;99523.55;182948;1234;59969;-82
2024/01/24 10:07:08;;;;;;;0.60;0.30;;;;;;;12.20;100.00;99532.21;182649;1234;45802;-82
2024/01/24 10:11:10;;;;;;;0.70;0.50;;;;;;;12.12;100.00;99535.11;183581;1234;46080;-82
2024/01/24 10:15:12;;;;;;;1.10;0.30;;;;;;;12.18;100.00;99529.56;182674;1234;44145;-82
2024/01/24 10:19:14;;;;;;;0.60;0.60;;;;;;;12.19;100.00;99533.73;182903;1233;45869;-82
2024/01/24 10:23:16;;;;;;;0.40;0.30;;;;;;;12.21;100.00;99535.45;182704;1234;59629;-82
2024/01/24 10:27:18;;;;;;;1.20;0.90;;;;;;;12.31;100.00;99518.65;182735;1237;45944;-83
2024/01/24 10:31:20;;;;;;;1.30;0.30;;;;;;;12.60;100.00;99506.10;182852;1237;45937;-82
2024/01/24 10:35:21;;;;;;;2.70;0.80;;;;;;;12.93;99.97;99502.73;182724;1234;46085;-83
2024/01/24 10:39:25;;;;;;;0.50;0.30;;;;;;;13.17;99.76;99528.02;182705;1237;46091;-82
2024/01/24 10:43:28;;;;;;;2.10;1.00;;;;;;;13.36;97.89;99520.89;182459;1235;59499;-82
2024/01/24 10:47:30;;;;;;;4.90;1.10;;;;;;;13.46;99.66;99537.27;183156;1233;46142;-82
2024/01/24 10:51:33;;;;;;;2.90;0.90;;;;;;;12.64;100.00;99607.95;183226;1233;46515;-82
2024/01/24 10:55:37;;;;;;;6.20;1.20;;;;;;;11.17;100.00;99589.02;183549;1237;46093;-82
2024/01/24 10:59:41;;;;;;;2.40;0.80;;;;;;;10.32;100.00;99582.73;182894;1234;46109;-82
2024/01/24 11:03:47;;;;;;;1.80;0.60;;;;;;;10.26;100.00;99574.89;182697;1234;59289;-83
2024/01/24 11:08:09;;;;;;;7.00;1.40;;;;;;;10.33;100.00;99582.97;183264;1234;46547;-82
2024/01/24 11:12:11;;;;;;;4.50;1.90;;;;;;;10.16;100.00;99597.44;183195;1234;45961;-82
2024/01/24 11:16:37;;;;;;;2.20;1.00;;;;;;;10.02;100.00;99611.09;182745;1234;45863;-82
2024/01/24 11:21:00;;;;;;;2.70;1.10;;;;;;;9.84;100.00;99618.67;182863;1234;46035;-81
2024/01/24 11:25:02;;;;;;;7.30;1.80;;;;;;;9.73;100.00;99602.13;182416;1234;58188;-82
2024/01/24 11:29:12;;;;;;;3.80;1.40;;;;;;;9.76;100.00;99611.98;182159;1234;45912;-82
2024/01/24 11:33:18;;;;;;;2.60;1.60;;;;;;;9.78;100.00;99614.70;182430;1234;45981;-82
2024/01/24 11:37:20;;;;;;;9.00;1.70;;;;;;;9.77;100.00;99600.18;183058;1235;44045;-82
2024/01/24 11:41:26;;;;;;;3.00;1.50;;;;;;;9.83;100.00;99626.56;182295;1237;46107;-81
2024/01/24 11:45:28;;;;;;;5.70;2.80;;;;;;;9.86;100.00;99623.13;182630;1233;59301;-82
2024/01/24 11:49:30;;;;;;;10.80;3.80;;;;;;;9.97;100.00;99626.23;182399;1234;46224;-82
2024/01/24 11:53:32;;;;;;;5.90;1.90;;;;;;;10.05;100.00;99640.58;182510;1235;45916;-82
2024/01/24 11:57:34;;;;;;;6.90;2.40;;;;;;;10.11;100.00;99616.52;182477;1233;45977;-82
2024/01/24 12:01:36;;;;;;;5.30;2.10;;;;;;;10.10;100.00;99621.00;182788;1238;45970;-81
2024/01/24 12:05:38;;;;;;;3.90;1.50;;;;;;;10.12;100.00;99613.17;182842;1233;59397;-82
2024/01/24 12:09:41;;;;;;;10.90;3.10;;;;;;;10.17;100.00;99614.70;183097;1235;46004;-82
2024/01/24 12:13:43;;;;;;;11.50;3.70;;;;;;;10.24;100.00;99627.52;182854;1233;46768;-82
2024/01/24 12:17:45;;;;;;;10.90;3.10;;;;;;;10.49;100.00;99628.66;182795;1235;46421;-81
2024/01/24 12:21:47;;;;;;;8.30;3.40;;;;;;;10.61;100.00;99646.08;182533;1235;45935;-82
2024/01/24 12:25:49;;;;;;;9.60;4.10;;;;;;;10.66;100.00;99642.75;182531;1234;58095;-82
2024/01/24 12:29:55;;;;;;;8.70;3.50;;;;;;;10.69;100.00;99634.13;182569;1238;45967;-81
2024/01/24 12:33:57;;;;;;;6.60;2.40;;;;;;;10.62;100.00;99632.31;182211;1234;45916;-82
2024/01/24 12:38:00;;;;;;;8.80;3.80;;;;;;;10.55;100.00;99641.50;182253;1237;45962;-82
2024/01/24 12:42:02;;;;;;;7.10;2.50;;;;;;;10.46;100.00;99657.88;182840;1234;46088;-82
2024/01/24 12:46:06;;;;;;;11.50;3.10;;;;;;;10.47;100.00;99672.83;182290;1237;57990;-82
2024/01/24 12:50:12;;;;;;;10.10;3.20;;;;;;;10.47;100.00;99688.45;182464;1234;46068;-82
2024/01/24 12:54:15;;;;;;;10.00;3.00;;;;;;;10.56;100.00;99693.14;182386;1236;45963;-82
2024/01/24 12:58:17;;;;;;;11.70;4.30;;;;;;;10.60;100.00;99700.43;182592;1234;46005;-82
2024/01/24 13:02:20;;;;;;;5.30;3.30;;;;;;;10.64;100.00;99720.06;182598;1235;44482;-81
2024/01/24 13:06:22;;;;;;;7.30;3.30;;;;;;;10.75;100.00;99713.77;183282;1234;59859;-82
2024/01/24 13:10:25;;;;;;;6.10;3.70;;;;;;;10.84;100.00;99710.80;183107;1233;45878;-81
2024/01/24 13:14:28;;;;;;;5.90;2.70;;;;;;;10.89;100.00;99709.27;182510;1234;46083;-81
2024/01/24 13:18:30;;;;;;;10.40;3.80;;;;;;;10.90;100.00;99712.19;182041;1234;45961;-81
2024/01/24 13:22:32;;;;;;;7.90;2.50;;;;;;;10.98;100.00;99700.98;182208;1237;46085;-80
2024/01/24 13:26:34;;;;;;;8.20;2.30;;;;;;;11.01;99.78;99707.84;182374;1234;59311;-82
2024/01/24 13:30:36;;;;;;;14.50;3.60;;;;;;;11.04;98.78;99698.70;182960;1234;45977;-82
2024/01/24 13:34:38;;;;;;;9.40;3.20;;;;;;;11.08;97.75;99701.33;182924;1234;46136;-82
2024/01/24 13:38:40;;;;;;;7.70;2.70;;;;;;;11.05;97.64;99721.14;182536;1235;46184;-82
2024/01/24 13:42:42;;;;;;;4.30;3.20;;;;;;;11.00;97.44;99715.91;182291;1234;45954;-81
2024/01/24 13:46:46;;;;;;;5.60;2.40;;;;;;;11.06;95.42;99713.77;182939;1237;57917;-82
2024/01/24 13:50:48;;;;;;;6.50;2.50;;;;;;;11.13;92.91;99715.98;182705;1234;46075;-82
2024/01/24 13:54:50;;;;;;;11.80;2.30;;;;;;;11.13;91.93;99723.75;182591;1234;46055;-82
2024/01/24 13:58:52;;;;;;;10.30;3.30;;;;;;;11.15;89.56;99714.52;182579;1234;46110;-82
2024/01/24 14:02:54;;;;;;;15.10;4.60;;;;;;;11.10;89.35;99726.54;182428;1234;46138;-82
2024/01/24 14:06:56;;;;;;;6.20;2.80;;;;;;;11.03;88.52;99732.02;182791;1234;58160;-82
2024/01/24 14:10:58;;;;;;;10.80;2.80;;;;;;;11.01;87.41;99721.98;182664;1234;46087;-82
2024/01/24 14:15:00;;;;;;;7.00;2.80;;;;;;;10.86;87.30;99724.64;182599;1234;46080;-82
2024/01/24 14:19:09;;;;;;;10.10;3.30;;;;;;;10.74;87.62;99737.11;182560;1234;45810;-82
2024/01/24 14:23:11;;;;;;;11.40;3.10;;;;;;;10.63;87.51;99721.54;182729;1238;46079;-81
2024/01/24 14:27:13;;;;;;;7.60;2.50;;;;;;;10.60;87.14;99754.48;182726;1234;58601;-82
2024/01/24 14:31:14;;;;;;;5.90;2.50;;;;;;;10.61;86.06;99755.84;182958;1234;46056;-82
2024/01/24 14:35:17;;;;;;;5.00;1.80;;;;;;;10.68;86.25;99767.55;181686;1234;46086;-82
2024/01/24 14:39:18;;;;;;;10.60;3.20;;;;;;;10.70;87.99;99788.52;182311;1238;46148;-82
2024/01/24 14:43:20;;;;;;;4.00;1.80;;;;;;;10.75;88.82;99788.79;182380;1234;46019;-81
2024/01/24 14:47:22;;;;;;;3.80;1.70;;;;;;;10.69;88.67;99788.42;182732;1237;59224;-81
2024/01/24 14:51:25;;;;;;;4.30;2.00;;;;;;;10.59;90.11;99799.05;182573;1237;46104;-81
2024/01/24 14:55:26;;;;;;;10.50;2.40;;;;;;;10.51;90.75;99801.90;182653;1234;45957;-82
2024/01/24 14:59:29;;;;;;;10.50;2.90;;;;;;;10.47;91.82;99800.69;183147;1234;46680;-82
2024/01/24 15:03:31;;;;;;;4.80;2.40;;;;;;;10.36;91.39;99800.68;182880;1234;46324;-81
2024/01/24 15:07:33;;;;;;;14.30;4.60;;;;;;;10.29;92.10;99807.84;183293;1234;59415;-81
2024/01/24 15:11:35;;;;;;;4.80;2.40;;;;;;;10.29;89.45;99808.59;182596;1237;46057;-81
2024/01/24 15:15:37;;;;;;;7.40;2.50;;;;;;;10.34;88.77;99826.77;182721;1235;46043;-81
2024/01/24 15:19:45;;;;;;;8.10;4.60;;;;;;;10.23;89.10;99824.88;183226;1235;46060;-81
2024/01/24 15:23:49;;;;;;;9.30;3.20;;;;;;;10.25;86.52;99803.65;183766;1234;46075;-81
2024/01/24 15:27:52;;;;;;;14.10;3.10;;;;;;;10.31;83.14;99793.74;183341;1235;59299;-81
2024/01/24 15:31:54;;;;;;;4.80;3.70;;;;;;;10.25;83.81;99804.10;182881;1237;46078;-81
2024/01/24 15:35:58;;;;;;;9.70;3.30;;;;;;;10.10;83.74;99801.91;183013;1235;44258;-83
2024/01/24 15:40:02;;;;;;;6.90;3.00;;;;;;;10.03;85.52;99818.66;182902;1233;46159;-82
2024/01/24 15:44:07;;;;;;;13.10;3.40;;;;;;;9.86;88.62;99810.20;182451;1235;43985;-82
2024/01/24 15:48:08;;;;;;;12.60;2.80;;;;;;;9.72;90.79;99821.95;182484;1234;59436;-82
2024/01/24 15:52:10;;;;;;;8.10;2.50;;;;;;;9.66;89.85;99785.64;182690;1234;44082;-82
2024/01/24 15:56:16;;;;;;;10.30;3.20;;;;;;;9.62;89.45;99796.64;182701;1234;44578;-82
2024/01/24 16:00:19;;;;;;;10.60;4.10;;;;;;;9.60;89.32;99806.69;182697;1234;46113;-82
2024/01/24 16:04:21;;;;;;;7.90;3.40;;;;;;;9.56;90.40;99810.05;182900;1235;45993;-82
2024/01/24 16:08:23;;;;;;;7.10;3.40;;;;;;;9.52;90.84;99805.08;182767;1238;57910;-82
2024/01/24 16:12:25;;;;;;;11.80;5.30;;;;;;;9.50;91.59;99810.20;182927;1234;46075;-83
2024/01/24 16:16:27;;;;;;;9.90;4.30;;;;;;;9.45;92.46;99809.58;182339;1234;45592;-82
2024/01/24 16:20:29;;;;;;;7.40;3.70;;;;;;;9.48;92.63;99801.34;182867;1234;45973;-83
2024/01/24 16:24:31;;;;;;;11.30;3.60;;;;;;;9.50;92.27;99800.65;182488;1237;45956;-82
2024/01/24 16:28:32;;;;;;;20.40;3.90;;;;;;;9.46;91.04;99782.42;182578;1235;57809;-81
2024/01/24 16:32:34;;;;;;;9.90;3.70;;;;;;;9.49;89.19;99789.55;182553;1239;46184;-82
2024/01/24 16:36:36;;;;;;;15.30;4.10;;;;;;;9.53;89.40;99782.86;183055;1235;45942;-82
2024/01/24 16:40:38;;;;;;;10.10;4.40;;;;;;;9.46;89.34;99807.54;182958;1234;46084;-81
2024/01/24 16:44:39;;;;;;;13.40;4.20;;;;;;;9.41;89.04;99791.30;183120;1236;44328;-82
2024/01/24 16:48:43;;;;;;;21.60;4.90;;;;;;;9.43;87.97;99797.88;182634;1237;59377;-82
2024/01/24 16:52:45;;;;;;;10.70;4.50;;;;;;;9.46;87.07;99786.15;184549;1234;46142;-81
2024/01/24 16:56:46;;;;;;;12.90;5.00;;;;;;;9.53;86.11;99785.56;183017;1234;44819;-82
2024/01/24 17:00:53;;;;;;;14.00;4.50;;;;;;;9.57;85.74;99799.15;183257;1237;45897;-82
2024/01/24 17:04:56;;;;;;;13.30;4.40;;;;;;;9.54;85.31;99795.48;182640;1235;45830;-81
2024/01/24 17:08:58;;;;;;;10.30;3.90;;;;;;;9.60;84.92;99815.04;183414;1235;60359;-82
2024/01/24 17:13:00;;;;;;;8.50;4.90;;;;;;;9.63;84.43;99800.14;182844;1239;46090;-82
2024/01/24 17:17:03;;;;;;;10.60;4.90;;;;;;;9.56;85.05;99821.39;182346;1234;44442;-82
2024/01/24 17:21:05;;;;;;;12.80;5.00;;;;;;;9.53;85.73;99821.46;182457;1237;46061;-81
2024/01/24 17:25:09;;;;;;;20.10;5.50;;;;;;;9.58;86.26;99831.33;182731;1234;45997;-82
2024/01/24 17:29:11;;;;;;;9.40;3.90;;;;;;;9.64;86.27;99855.95;182591;1237;58095;-82
2024/01/24 17:33:14;;;;;;;10.20;3.50;;;;;;;9.64;85.88;99849.57;183288;1234;45954;-81
2024/01/24 17:37:16;;;;;;;9.70;3.30;;;;;;;9.72;84.74;99846.39;183454;1235;46073;-82
2024/01/24 17:41:17;;;;;;;9.00;3.50;;;;;;;9.73;85.35;99856.30;182925;1235;46035;-82
2024/01/24 17:45:20;;;;;;;10.90;3.70;;;;;;;9.77;86.37;99833.44;183241;1234;44624;-89
2024/01/24 17:49:22;;;;;;;18.60;4.90;;;;;;;9.78;87.47;99827.81;183563;1237;57898;-89
2024/01/24 17:53:25;;;;;;;13.50;4.00;;;;;;;9.77;89.66;99834.67;183814;1237;46058;-88
2024/01/24 17:57:27;;;;;;;12.90;5.20;;;;;;;9.70;89.46;99822.36;183608;1234;44793;-88
2024/01/24 18:01:29;;;;;;;13.90;5.10;;;;;;;9.61;89.25;99815.52;184032;1234;44754;-88
2024/01/24 18:05:34;;;;;;;10.80;3.70;;;;;;;9.61;89.76;99826.42;184103;1237;44569;-89
2024/01/24 18:09:39;;;;;;;16.20;5.30;;;;;;;9.62;89.69;99838.39;184090;1237;59345;-90
2024/01/24 18:13:41;;;;;;;9.80;4.40;;;;;;;9.59;90.10;99852.63;184058;1237;46068;-89
2024/01/24 18:17:43;;;;;;;15.30;5.30;;;;;;;9.53;90.70;99840.05;184153;1237;44632;-89
2024/01/24 18:21:45;;;;;;;11.30;3.80;;;;;;;9.50;93.94;99855.36;183925;1234;45970;-88
2024/01/24 18:25:48;;;;;;;13.60;5.40;;;;;;;9.31;95.02;99857.48;183703;1237;46006;-89
2024/01/24 18:29:52;;;;;;;9.40;4.80;;;;;;;9.25;95.35;99854.00;183788;1234;57755;-88
2024/01/24 18:33:54;;;;;;;7.90;4.70;;;;;;;9.15;96.28;99863.55;183842;1234;45985;-88
2024/01/24 18:37:57;;;;;;;9.90;3.90;;;;;;;9.17;96.97;99888.53;184958;1235;44365;-89
2024/01/24 18:42:00;;;;;;;14.50;3.80;;;;;;;9.13;97.00;99880.02;183542;1234;46069;-89